sensor_id;sensor_type;location;lat;lon;timestamp;temperature;humidity
11838;DHT22;5978;51.020;6.764;2024-02-15T00:00:37;12.90;99.90
11838;DHT22;5978;51.020;6.764;2024-02-15T00:03:03;12.90;99.90
11838;DHT22;5978;51.020;6.764;2024-02-15T00:05:32;12.80;99.90
11838;DHT22;5978;51.020;6.764;2024-02-15T00:07:58;12.80;99.90
11838;DHT22;5978;51.020;6.764;2024-02-15T00:10:25;12.90;99.90
11838;DHT22;5978;51.020;6.764;2024-02-15T00:12:51;12.80;99.90
11838;DHT22;5978;51.020;6.764;2024-02-15T00:15:16;12.90;99.90
11838;DHT22;5978;51.020;6.764;2024-02-15T00:17:42;12.80;99.90
11838;DHT22;5978;51.020;6.764;2024-02-15T00:20:08;12.90;99.90
11838;DHT22;5978;51.020;6.764;2024-02-15T00:22:36;12.90;99.90
11838;DHT22;5978;51.020;6.764;2024-02-15T00:25:02;12.90;99.90
11838;DHT22;5978;51.020;6.764;2024-02-15T00:27:28;12.90;99.90
11838;DHT22;5978;51.020;6.764;2024-02-15T00:29:54;12.90;99.90
11838;DHT22;5978;51.020;6.764;2024-02-15T00:32:19;12.90;99.90
11838;DHT22;5978;51.020;6.764;2024-02-15T00:34:45;13.00;99.90
11838;DHT22;5978;51.020;6.764;2024-02-15T00:37:11;12.90;99.90
11838;DHT22;5978;51.020;6.764;2024-02-15T00:39:36;13.00;99.90
11838;DHT22;5978;51.020;6.764;2024-02-15T00:42:02;13.00;99.90
11838;DHT22;5978;51.020;6.764;2024-02-15T00:44:28;12.90;99.90
11838;DHT22;5978;51.020;6.764;2024-02-15T00:46:54;12.90;99.90
11838;DHT22;5978;51.020;6.764;2024-02-15T00:49:21;12.90;99.90
11838;DHT22;5978;51.020;6.764;2024-02-15T00:51:48;12.90;99.90
11838;DHT22;5978;51.020;6.764;2024-02-15T00:54:14;12.90;99.90
11838;DHT22;5978;51.020;6.764;2024-02-15T00:56:40;12.90;99.90
11838;DHT22;5978;51.020;6.764;2024-02-15T00:59:06;13.00;99.90
11838;DHT22;5978;51.020;6.764;2024-02-15T01:01:31;13.00;99.90
11838;DHT22;5978;51.020;6.764;2024-02-15T01:03:57;12.90;99.90
11838;DHT22;5978;51.020;6.764;2024-02-15T01:06:23;13.00;99.90
11838;DHT22;5978;51.020;6.764;2024-02-15T01:08:49;13.00;99.90
11838;DHT22;5978;51.020;6.764;2024-02-15T01:11:15;13.00;99.90
11838;DHT22;5978;51.020;6.764;2024-02-15T01:13:42;13.10;99.90
11838;DHT22;5978;51.020;6.764;2024-02-15T01:16:07;13.00;99.90
11838;DHT22;5978;51.020;6.764;2024-02-15T01:18:33;13.10;99.90
11838;DHT22;5978;51.020;6.764;2024-02-15T01:21:00;13.00;99.90
11838;DHT22;5978;51.020;6.764;2024-02-15T01:23:26;13.00;99.90
11838;DHT22;5978;51.020;6.764;2024-02-15T01:25:52;13.00;99.90
11838;DHT22;5978;51.020;6.764;2024-02-15T01:28:18;13.00;99.90
11838;DHT22;5978;51.020;6.764;2024-02-15T01:30:47;13.00;99.90
11838;DHT22;5978;51.020;6.764;2024-02-15T01:33:13;12.90;99.90
11838;DHT22;5978;51.020;6.764;2024-02-15T01:35:39;12.90;99.90
11838;DHT22;5978;51.020;6.764;2024-02-15T01:38:07;12.90;99.90
11838;DHT22;5978;51.020;6.764;2024-02-15T01:40:33;13.00;99.90
11838;DHT22;5978;51.020;6.764;2024-02-15T01:43:00;12.90;99.90
11838;DHT22;5978;51.020;6.764;2024-02-15T01:45:26;12.90;99.90
11838;DHT22;5978;51.020;6.764;2024-02-15T01:47:53;12.90;99.90
11838;DHT22;5978;51.020;6.764;2024-02-15T01:50:20;12.90;99.90
11838;DHT22;5978;51.020;6.764;2024-02-15T01:52:48;12.80;99.90
11838;DHT22;5978;51.020;6.764;2024-02-15T01:55:16;12.80;99.90
11838;DHT22;5978;51.020;6.764;2024-02-15T01:57:52;12.90;99.90
11838;DHT22;5978;51.020;6.764;2024-02-15T02:00:18;12.90;99.90
11838;DHT22;5978;51.020;6.764;2024-02-15T02:02:45;12.90;99.90
11838;DHT22;5978;51.020;6.764;2024-02-15T02:05:12;12.90;99.90
11838;DHT22;5978;51.020;6.764;2024-02-15T02:07:38;12.90;99.90
11838;DHT22;5978;51.020;6.764;2024-02-15T02:10:04;12.80;99.90
11838;DHT22;5978;51.020;6.764;2024-02-15T02:12:31;12.80;99.90
11838;DHT22;5978;51.020;6.764;2024-02-15T02:14:57;12.70;99.90
11838;DHT22;5978;51.020;6.764;2024-02-15T02:17:22;12.70;99.90
11838;DHT22;5978;51.020;6.764;2024-02-15T02:19:48;12.70;99.90
11838;DHT22;5978;51.020;6.764;2024-02-15T02:22:18;12.60;99.90
11838;DHT22;5978;51.020;6.764;2024-02-15T02:27:22;12.40;99.90
11838;DHT22;5978;51.020;6.764;2024-02-15T02:29:48;12.50;99.90
11838;DHT22;5978;51.020;6.764;2024-02-15T02:32:14;12.40;99.90
11838;DHT22;5978;51.020;6.764;2024-02-15T02:34:40;12.40;99.90
11838;DHT22;5978;51.020;6.764;2024-02-15T02:37:10;12.30;99.90
11838;DHT22;5978;51.020;6.764;2024-02-15T02:39:35;12.20;99.90
11838;DHT22;5978;51.020;6.764;2024-02-15T02:42:01;12.20;99.90
11838;DHT22;5978;51.020;6.764;2024-02-15T02:44:27;12.10;99.90
11838;DHT22;5978;51.020;6.764;2024-02-15T02:46:52;12.10;99.90
11838;DHT22;5978;51.020;6.764;2024-02-15T02:49:18;12.00;99.90
11838;DHT22;5978;51.020;6.764;2024-02-15T02:51:44;11.90;99.90
11838;DHT22;5978;51.020;6.764;2024-02-15T02:54:10;11.90;99.90
11838;DHT22;5978;51.020;6.764;2024-02-15T02:56:36;11.90;99.90
11838;DHT22;5978;51.020;6.764;2024-02-15T02:59:02;11.90;99.90
11838;DHT22;5978;51.020;6.764;2024-02-15T03:01:28;11.90;99.90
11838;DHT22;5978;51.020;6.764;2024-02-15T03:03:55;11.90;99.90
11838;DHT22;5978;51.020;6.764;2024-02-15T03:06:21;11.90;99.90
11838;DHT22;5978;51.020;6.764;2024-02-15T03:08:50;11.80;99.90
11838;DHT22;5978;51.020;6.764;2024-02-15T03:11:19;11.80;99.90
11838;DHT22;5978;51.020;6.764;2024-02-15T03:13:46;11.90;99.90
11838;DHT22;5978;51.020;6.764;2024-02-15T03:16:13;11.80;99.90
11838;DHT22;5978;51.020;6.764;2024-02-15T03:18:39;11.80;99.90
11838;DHT22;5978;51.020;6.764;2024-02-15T03:21:07;11.90;99.90
11838;DHT22;5978;51.020;6.764;2024-02-15T03:23:36;11.90;99.90
11838;DHT22;5978;51.020;6.764;2024-02-15T03:26:02;11.80;99.90
11838;DHT22;5978;51.020;6.764;2024-02-15T03:28:31;11.80;99.90
11838;DHT22;5978;51.020;6.764;2024-02-15T03:30:57;11.80;99.90
11838;DHT22;5978;51.020;6.764;2024-02-15T03:33:26;11.80;99.90
11838;DHT22;5978;51.020;6.764;2024-02-15T03:35:54;11.80;99.90
11838;DHT22;5978;51.020;6.764;2024-02-15T03:38:25;11.90;99.90
11838;DHT22;5978;51.020;6.764;2024-02-15T03:40:52;11.90;99.90
11838;DHT22;5978;51.020;6.764;2024-02-15T03:43:19;11.90;99.90
11838;DHT22;5978;51.020;6.764;2024-02-15T03:45:48;11.90;99.90
11838;DHT22;5978;51.020;6.764;2024-02-15T03:48:13;12.00;99.90
11838;DHT22;5978;51.020;6.764;2024-02-15T03:50:40;11.90;99.90
11838;DHT22;5978;51.020;6.764;2024-02-15T03:53:06;11.90;99.90
11838;DHT22;5978;51.020;6.764;2024-02-15T03:55:31;11.90;99.90
11838;DHT22;5978;51.020;6.764;2024-02-15T03:57:58;11.80;99.90
11838;DHT22;5978;51.020;6.764;2024-02-15T04:00:24;11.80;99.90
11838;DHT22;5978;51.020;6.764;2024-02-15T04:02:50;11.70;99.90
11838;DHT22;5978;51.020;6.764;2024-02-15T04:05:16;11.70;99.90
11838;DHT22;5978;51.020;6.764;2024-02-15T04:07:44;11.60;99.90
11838;DHT22;5978;51.020;6.764;2024-02-15T04:10:10;11.50;99.90
11838;DHT22;5978;51.020;6.764;2024-02-15T04:12:36;11.50;99.90
11838;DHT22;5978;51.020;6.764;2024-02-15T04:15:06;11.50;99.90
11838;DHT22;5978;51.020;6.764;2024-02-15T04:17:37;11.50;99.90
11838;DHT22;5978;51.020;6.764;2024-02-15T04:20:04;11.50;99.90
11838;DHT22;5978;51.020;6.764;2024-02-15T04:22:35;11.60;99.90
11838;DHT22;5978;51.020;6.764;2024-02-15T04:25:07;11.60;99.90
11838;DHT22;5978;51.020;6.764;2024-02-15T04:27:36;11.60;99.90
11838;DHT22;5978;51.020;6.764;2024-02-15T04:30:03;11.60;99.90
11838;DHT22;5978;51.020;6.764;2024-02-15T04:32:29;11.60;99.90
11838;DHT22;5978;51.020;6.764;2024-02-15T04:34:59;11.60;99.90
11838;DHT22;5978;51.020;6.764;2024-02-15T04:37:25;11.60;99.90
11838;DHT22;5978;51.020;6.764;2024-02-15T04:39:52;11.70;99.90
11838;DHT22;5978;51.020;6.764;2024-02-15T04:42:18;11.70;99.90
11838;DHT22;5978;51.020;6.764;2024-02-15T04:44:44;11.70;99.90
11838;DHT22;5978;51.020;6.764;2024-02-15T04:47:10;11.70;99.90
11838;DHT22;5978;51.020;6.764;2024-02-15T04:49:36;11.70;99.90
11838;DHT22;5978;51.020;6.764;2024-02-15T04:52:05;11.70;99.90
11838;DHT22;5978;51.020;6.764;2024-02-15T04:54:33;11.70;99.90
11838;DHT22;5978;51.020;6.764;2024-02-15T04:56:59;11.70;99.90
11838;DHT22;5978;51.020;6.764;2024-02-15T04:59:26;11.70;99.90
11838;DHT22;5978;51.020;6.764;2024-02-15T05:01:52;11.70;99.90
11838;DHT22;5978;51.020;6.764;2024-02-15T05:04:19;11.70;99.90
11838;DHT22;5978;51.020;6.764;2024-02-15T05:06:44;11.60;99.90
11838;DHT22;5978;51.020;6.764;2024-02-15T05:09:11;11.60;99.90
11838;DHT22;5978;51.020;6.764;2024-02-15T05:11:37;11.50;99.90
11838;DHT22;5978;51.020;6.764;2024-02-15T05:14:06;11.50;99.90
11838;DHT22;5978;51.020;6.764;2024-02-15T05:16:36;11.50;99.90
11838;DHT22;5978;51.020;6.764;2024-02-15T05:19:10;11.50;99.90
11838;DHT22;5978;51.020;6.764;2024-02-15T05:21:38;11.50;99.90
11838;DHT22;5978;51.020;6.764;2024-02-15T05:24:05;11.50;99.90
11838;DHT22;5978;51.020;6.764;2024-02-15T05:26:30;11.50;99.90
11838;DHT22;5978;51.020;6.764;2024-02-15T05:29:03;11.60;99.90
11838;DHT22;5978;51.020;6.764;2024-02-15T05:31:30;11.50;99.90
11838;DHT22;5978;51.020;6.764;2024-02-15T05:33:56;11.50;99.90
11838;DHT22;5978;51.020;6.764;2024-02-15T05:36:23;11.50;99.90
11838;DHT22;5978;51.020;6.764;2024-02-15T05:38:52;11.50;99.90
11838;DHT22;5978;51.020;6.764;2024-02-15T05:41:19;11.50;99.90
11838;DHT22;5978;51.020;6.764;2024-02-15T05:43:46;11.50;99.90
11838;DHT22;5978;51.020;6.764;2024-02-15T05:46:14;11.50;99.90
11838;DHT22;5978;51.020;6.764;2024-02-15T05:48:40;11.50;99.90
11838;DHT22;5978;51.020;6.764;2024-02-15T05:51:07;11.60;99.90
11838;DHT22;5978;51.020;6.764;2024-02-15T05:53:34;11.60;99.90
11838;DHT22;5978;51.020;6.764;2024-02-15T05:56:05;11.60;99.90
11838;DHT22;5978;51.020;6.764;2024-02-15T05:58:35;11.60;99.90
11838;DHT22;5978;51.020;6.764;2024-02-15T06:01:03;11.60;99.90
11838;DHT22;5978;51.020;6.764;2024-02-15T06:03:31;11.60;99.90
11838;DHT22;5978;51.020;6.764;2024-02-15T06:05:58;11.60;99.90
11838;DHT22;5978;51.020;6.764;2024-02-15T06:08:25;11.60;99.90
11838;DHT22;5978;51.020;6.764;2024-02-15T06:10:52;11.60;99.90
11838;DHT22;5978;51.020;6.764;2024-02-15T06:13:18;11.70;99.90
11838;DHT22;5978;51.020;6.764;2024-02-15T06:15:44;11.70;99.90
11838;DHT22;5978;51.020;6.764;2024-02-15T06:18:12;11.70;99.90
11838;DHT22;5978;51.020;6.764;2024-02-15T06:20:40;11.70;99.90
11838;DHT22;5978;51.020;6.764;2024-02-15T06:23:06;11.70;99.90
11838;DHT22;5978;51.020;6.764;2024-02-15T06:25:33;11.70;99.90
11838;DHT22;5978;51.020;6.764;2024-02-15T06:28:00;11.70;99.90
11838;DHT22;5978;51.020;6.764;2024-02-15T06:30:39;11.80;99.90
11838;DHT22;5978;51.020;6.764;2024-02-15T06:33:24;11.80;99.90
11838;DHT22;5978;51.020;6.764;2024-02-15T06:36:08;11.90;99.90
11838;DHT22;5978;51.020;6.764;2024-02-15T06:38:52;11.80;99.90
11838;DHT22;5978;51.020;6.764;2024-02-15T06:41:37;11.80;99.90
11838;DHT22;5978;51.020;6.764;2024-02-15T06:44:03;11.80;99.90
11838;DHT22;5978;51.020;6.764;2024-02-15T06:46:29;11.90;99.90
11838;DHT22;5978;51.020;6.764;2024-02-15T06:48:55;11.90;99.90
11838;DHT22;5978;51.020;6.764;2024-02-15T06:51:24;12.00;99.90
11838;DHT22;5978;51.020;6.764;2024-02-15T06:53:52;12.00;99.90
11838;DHT22;5978;51.020;6.764;2024-02-15T06:56:21;11.90;99.90
11838;DHT22;5978;51.020;6.764;2024-02-15T06:58:50;11.90;99.90
11838;DHT22;5978;51.020;6.764;2024-02-15T07:01:18;11.90;99.90
11838;DHT22;5978;51.020;6.764;2024-02-15T07:03:52;11.90;99.90
11838;DHT22;5978;51.020;6.764;2024-02-15T07:06:24;11.80;99.90
11838;DHT22;5978;51.020;6.764;2024-02-15T07:08:53;11.80;99.90
11838;DHT22;5978;51.020;6.764;2024-02-15T07:11:22;11.80;99.90
11838;DHT22;5978;51.020;6.764;2024-02-15T07:13:48;11.80;99.90
11838;DHT22;5978;51.020;6.764;2024-02-15T07:16:14;11.90;99.90
11838;DHT22;5978;51.020;6.764;2024-02-15T07:18:41;11.80;99.90
11838;DHT22;5978;51.020;6.764;2024-02-15T07:21:06;11.80;99.90
11838;DHT22;5978;51.020;6.764;2024-02-15T07:23:36;11.80;99.90
11838;DHT22;5978;51.020;6.764;2024-02-15T07:26:02;11.80;99.90
11838;DHT22;5978;51.020;6.764;2024-02-15T07:28:29;11.80;99.90
